Time;durP1;ratioP1;P1;durP2;ratioP2;P2;SDS_P1;SDS_P2;PMS_P1;PMS_P2;Temp;Humidity;BMP_temperature;BMP_pressure;BME280_temperature;BME280_humidity;BME280_pressure;Samples;Min_cycle;Max_cycle;Signal;HPM_P1;HPM_P2
2021/09/08 00:01:38;;;;;;;47.70;20.88;;;;;;;;;;5055573;28;20687;-75
2021/09/08 00:04:04;;;;;;;51.05;21.10;;;;;;;;;;5055728;28;20033;-74
2021/09/08 00:06:29;;;;;;;38.53;18.17;;;;;;;;;;5055655;28;20369;-75
2021/09/08 00:08:54;;;;;;;53.38;22.55;;;;;;;;;;5055769;28;20377;-75
2021/09/08 00:11:20;;;;;;;39.83;19.83;;;;;;;;;;5055359;28;20115;-75
2021/09/08 00:13:45;;;;;;;59.90;24.10;;;;;;;;;;5055133;28;20029;-75
2021/09/08 00:16:11;;;;;;;46.83;21.85;;;;;;;;;;5055514;28;20028;-74
2021/09/08 00:18:36;;;;;;;37.90;18.98;;;;;;;;;;5055280;28;20052;-75
2021/09/08 00:21:01;;;;;;;42.38;20.38;;;;;;;;;;5055394;28;20507;-75
2021/09/08 00:23:27;;;;;;;40.10;20.77;;;;;;;;;;5055016;28;20090;-74
2021/09/08 00:25:52;;;;;;;51.88;22.00;;;;;;;;;;5055307;28;20021;-75
2021/09/08 00:28:17;;;;;;;44.80;21.10;;;;;;;;;;5055271;28;20017;-74
2021/09/08 00:30:42;;;;;;;59.75;23.70;;;;;;;;;;5054897;28;20021;-75
2021/09/08 00:33:08;;;;;;;44.58;20.90;;;;;;;;;;5054755;28;20053;-75
2021/09/08 00:35:33;;;;;;;51.95;21.90;;;;;;;;;;5054973;28;20079;-75
2021/09/08 00:37:58;;;;;;;56.08;22.38;;;;;;;;;;5055219;28;20033;-76
2021/09/08 00:40:24;;;;;;;42.92;19.98;;;;;;;;;;5055000;28;20040;-75
2021/09/08 00:42:49;;;;;;;46.25;21.38;;;;;;;;;;5055069;28;20365;-74
2021/09/08 00:45:15;;;;;;;38.22;18.80;;;;;;;;;;5054769;28;20025;-75
2021/09/08 00:47:40;;;;;;;46.55;21.63;;;;;;;;;;5054880;28;20045;-75
2021/09/08 00:50:05;;;;;;;44.55;20.27;;;;;;;;;;5054846;28;20017;-75
2021/09/08 00:52:31;;;;;;;39.50;19.42;;;;;;;;;;5054837;28;20028;-75
2021/09/08 00:54:57;;;;;;;46.05;19.10;;;;;;;;;;5054800;28;20496;-74
2021/09/08 00:57:25;;;;;;;48.25;20.17;;;;;;;;;;5054572;28;20040;-75
2021/09/08 00:59:50;;;;;;;37.75;19.27;;;;;;;;;;5054860;28;20021;-75
2021/09/08 01:02:15;;;;;;;58.10;22.88;;;;;;;;;;5054710;28;20033;-75
2021/09/08 01:04:41;;;;;;;39.05;18.50;;;;;;;;;;5054168;28;20100;-75
2021/09/08 01:07:06;;;;;;;54.90;22.20;;;;;;;;;;5054669;28;20025;-75
2021/09/08 01:09:32;;;;;;;37.65;17.67;;;;;;;;;;5054145;28;20033;-76
2021/09/08 01:11:57;;;;;;;53.03;21.83;;;;;;;;;;5053749;28;20053;-75
2021/09/08 01:14:23;;;;;;;59.10;22.70;;;;;;;;;;5054403;28;20035;-75
2021/09/08 01:16:49;;;;;;;44.00;19.67;;;;;;;;;;5054277;28;20112;-75
2021/09/08 01:19:14;;;;;;;42.97;20.65;;;;;;;;;;5054261;28;20075;-75
2021/09/08 01:21:40;;;;;;;51.65;21.70;;;;;;;;;;5054013;28;20554;-75
2021/09/08 01:24:06;;;;;;;48.80;20.95;;;;;;;;;;5054139;28;20064;-75
2021/09/08 01:26:31;;;;;;;63.22;24.20;;;;;;;;;;5054109;28;20021;-75
2021/09/08 01:28:57;;;;;;;45.85;20.23;;;;;;;;;;5054197;28;20020;-75
2021/09/08 01:31:24;;;;;;;64.20;23.88;;;;;;;;;;5054009;28;20534;-76
2021/09/08 01:33:50;;;;;;;59.40;23.13;;;;;;;;;;5053587;28;20053;-75
2021/09/08 01:36:15;;;;;;;44.63;19.90;;;;;;;;;;5053955;28;20462;-74
2021/09/08 01:38:40;;;;;;;46.28;20.13;;;;;;;;;;5053510;28;20174;-75
2021/09/08 01:41:05;;;;;;;53.63;21.25;;;;;;;;;;5054030;28;20418;-75
2021/09/08 01:43:31;;;;;;;44.08;19.80;;;;;;;;;;5052661;28;20021;-75
2021/09/08 01:45:56;;;;;;;53.35;23.02;;;;;;;;;;5053550;28;20591;-74
2021/09/08 01:48:21;;;;;;;48.58;21.08;;;;;;;;;;5053766;28;20099;-74
2021/09/08 01:50:47;;;;;;;49.65;20.70;;;;;;;;;;5053761;28;20432;-75
2021/09/08 01:53:12;;;;;;;38.13;19.45;;;;;;;;;;5053682;28;20045;-75
2021/09/08 01:55:38;;;;;;;54.60;21.83;;;;;;;;;;5053467;28;20374;-75
2021/09/08 01:58:03;;;;;;;46.78;20.90;;;;;;;;;;5053639;28;20053;-75
2021/09/08 02:00:29;;;;;;;62.22;23.48;;;;;;;;;;5053464;28;20068;-75
2021/09/08 02:02:54;;;;;;;56.60;23.05;;;;;;;;;;5053428;28;20063;-74
2021/09/08 02:05:19;;;;;;;55.28;22.30;;;;;;;;;;5053546;28;20029;-75
2021/09/08 02:07:45;;;;;;;55.00;23.52;;;;;;;;;;5053163;28;20032;-76
2021/09/08 02:10:11;;;;;;;57.60;22.40;;;;;;;;;;5053116;28;20025;-74
2021/09/08 02:12:36;;;;;;;49.22;21.52;;;;;;;;;;5053454;28;20048;-75
2021/09/08 02:15:01;;;;;;;63.35;25.13;;;;;;;;;;5053099;28;20424;-76
2021/09/08 02:17:27;;;;;;;48.65;21.45;;;;;;;;;;5053240;28;20025;-75
2021/09/08 02:19:53;;;;;;;50.85;21.92;;;;;;;;;;5053335;28;20017;-75
2021/09/08 02:22:19;;;;;;;80.38;27.20;;;;;;;;;;5053312;28;20025;-75
2021/09/08 02:24:44;;;;;;;73.30;26.92;;;;;;;;;;5053137;28;20096;-74
2021/09/08 02:27:10;;;;;;;51.55;22.95;;;;;;;;;;5053047;28;20029;-75
2021/09/08 02:29:35;;;;;;;64.15;24.67;;;;;;;;;;5053152;28;20064;-75
2021/09/08 02:32:01;;;;;;;71.47;25.30;;;;;;;;;;5052989;28;20460;-75
2021/09/08 02:34:26;;;;;;;67.00;24.88;;;;;;;;;;5053455;28;20369;-75
2021/09/08 02:36:51;;;;;;;45.53;20.88;;;;;;;;;;5052965;28;20388;-75
2021/09/08 02:39:16;;;;;;;64.03;24.52;;;;;;;;;;5053248;28;20104;-75
2021/09/08 02:41:42;;;;;;;67.78;24.83;;;;;;;;;;5053149;28;20017;-75
2021/09/08 02:44:07;;;;;;;64.55;25.73;;;;;;;;;;5053119;28;20108;-74
2021/09/08 02:46:32;;;;;;;85.47;27.95;;;;;;;;;;5053020;28;20366;-75
2021/09/08 02:48:58;;;;;;;62.55;24.30;;;;;;;;;;5053320;28;20423;-75
2021/09/08 02:51:23;;;;;;;61.83;25.13;;;;;;;;;;5052711;28;20139;-76
2021/09/08 02:53:48;;;;;;;50.65;23.02;;;;;;;;;;5053010;28;20464;-75
2021/09/08 02:56:13;;;;;;;58.33;22.77;;;;;;;;;;5053014;28;20025;-75
2021/09/08 02:58:39;;;;;;;63.80;25.35;;;;;;;;;;5052887;28;20432;-74
2021/09/08 03:01:04;;;;;;;64.20;23.58;;;;;;;;;;5052945;28;20025;-74
2021/09/08 03:03:29;;;;;;;62.97;24.67;;;;;;;;;;5052656;28;20025;-74
2021/09/08 03:05:55;;;;;;;44.60;21.85;;;;;;;;;;5052932;28;20075;-75
2021/09/08 03:08:20;;;;;;;64.75;23.52;;;;;;;;;;5052881;28;20017;-75
2021/09/08 03:10:46;;;;;;;61.10;22.92;;;;;;;;;;5053163;28;20450;-74
2021/09/08 03:13:12;;;;;;;49.67;23.58;;;;;;;;;;5052799;28;20401;-75
2021/09/08 03:15:38;;;;;;;70.18;26.50;;;;;;;;;;5052741;28;20013;-75
2021/09/08 03:18:03;;;;;;;59.35;23.77;;;;;;;;;;5052461;28;20064;-75
2021/09/08 03:20:29;;;;;;;71.38;25.80;;;;;;;;;;5052676;28;20040;-74
2021/09/08 03:22:54;;;;;;;64.72;26.13;;;;;;;;;;5052764;28;20445;-75
2021/09/08 03:25:19;;;;;;;88.18;28.10;;;;;;;;;;5052444;28;20028;-74
2021/09/08 03:27:44;;;;;;;65.38;25.60;;;;;;;;;;5052606;28;20040;-75
2021/09/08 03:30:10;;;;;;;70.25;26.90;;;;;;;;;;5052981;28;20047;-75
2021/09/08 03:32:35;;;;;;;101.65;31.58;;;;;;;;;;5052349;28;20049;-74
2021/09/08 03:35:00;;;;;;;76.53;28.15;;;;;;;;;;5053828;28;20064;-75
2021/09/08 03:37:26;;;;;;;52.35;23.92;;;;;;;;;;5055937;28;20457;-77
2021/09/08 03:39:52;;;;;;;65.47;26.15;;;;;;;;;;5056346;28;20112;-75
2021/09/08 03:42:17;;;;;;;67.00;24.77;;;;;;;;;;5056179;28;20033;-75
2021/09/08 03:44:43;;;;;;;80.47;29.13;;;;;;;;;;5056122;28;20029;-75
2021/09/08 03:47:08;;;;;;;64.90;26.30;;;;;;;;;;5055813;28;20096;-74
2021/09/08 03:49:33;;;;;;;75.45;27.63;;;;;;;;;;5056004;28;20040;-74
2021/09/08 03:51:58;;;;;;;80.82;27.73;;;;;;;;;;5056275;28;20021;-75
2021/09/08 03:54:24;;;;;;;70.78;26.40;;;;;;;;;;5055967;28;20506;-76
2021/09/08 03:56:49;;;;;;;70.35;25.20;;;;;;;;;;5055655;28;20041;-74
2021/09/08 03:59:14;;;;;;;62.42;24.92;;;;;;;;;;5056134;28;20032;-75
2021/09/08 04:01:40;;;;;;;53.22;22.85;;;;;;;;;;5055763;28;20066;-75
2021/09/08 04:04:05;;;;;;;80.95;28.67;;;;;;;;;;5055738;28;20036;-76
2021/09/08 04:06:30;;;;;;;67.78;26.20;;;;;;;;;;5055973;28;20031;-75
2021/09/08 04:08:55;;;;;;;78.07;27.63;;;;;;;;;;5056030;28;20020;-75
2021/09/08 04:11:21;;;;;;;85.50;28.85;;;;;;;;;;5055624;28;20133;-74
2021/09/08 04:13:46;;;;;;;86.82;30.20;;;;;;;;;;5055494;28;20067;-75
2021/09/08 04:16:11;;;;;;;58.95;25.20;;;;;;;;;;5055491;28;20453;-74
2021/09/08 04:18:37;;;;;;;75.28;28.20;;;;;;;;;;5055352;28;20048;-75
2021/09/08 04:21:02;;;;;;;57.83;24.83;;;;;;;;;;5055441;28;20504;-75
2021/09/08 04:23:27;;;;;;;64.10;26.17;;;;;;;;;;5055408;28;20361;-75
2021/09/08 04:25:53;;;;;;;59.53;26.10;;;;;;;;;;5055309;28;20402;-75
2021/09/08 04:28:18;;;;;;;70.57;27.90;;;;;;;;;;5055050;28;20108;-75
2021/09/08 04:30:43;;;;;;;81.68;30.30;;;;;;;;;;5053994;28;20025;-75
2021/09/08 04:33:09;;;;;;;75.63;29.40;;;;;;;;;;5055391;28;20052;-75
2021/09/08 04:35:34;;;;;;;63.72;26.77;;;;;;;;;;5055094;28;20044;-75
2021/09/08 04:38:00;;;;;;;61.60;26.30;;;;;;;;;;5055179;28;20037;-75
2021/09/08 04:40:25;;;;;;;65.22;27.30;;;;;;;;;;5054630;28;20048;-75
2021/09/08 04:42:50;;;;;;;76.00;28.70;;;;;;;;;;5055332;28;20021;-74
2021/09/08 04:45:16;;;;;;;67.82;26.13;;;;;;;;;;5055099;28;20515;-76
2021/09/08 04:47:41;;;;;;;70.22;26.60;;;;;;;;;;5053757;28;20025;-75
2021/09/08 04:50:07;;;;;;;83.07;27.88;;;;;;;;;;5054921;28;20051;-75
2021/09/08 04:52:34;;;;;;;73.35;27.55;;;;;;;;;;5054698;28;20108;-75
2021/09/08 04:55:00;;;;;;;84.13;29.25;;;;;;;;;;5054890;28;20090;-75
2021/09/08 04:57:25;;;;;;;67.65;25.83;;;;;;;;;;5054581;28;20037;-74
2021/09/08 04:59:50;;;;;;;84.22;28.25;;;;;;;;;;5054776;28;20104;-74
2021/09/08 05:02:15;;;;;;;74.15;25.77;;;;;;;;;;5054663;28;20036;-74
2021/09/08 05:04:41;;;;;;;52.30;24.35;;;;;;;;;;5054716;28;20461;-75
2021/09/08 05:07:06;;;;;;;59.97;25.92;;;;;;;;;;5054671;28;20021;-76
2021/09/08 05:09:31;;;;;;;74.60;28.48;;;;;;;;;;5054554;28;20037;-74
2021/09/08 05:11:56;;;;;;;65.45;25.52;;;;;;;;;;5054871;28;20017;-75
2021/09/08 05:14:22;;;;;;;68.05;27.98;;;;;;;;;;5054482;28;20466;-74
2021/09/08 05:16:47;;;;;;;87.65;30.65;;;;;;;;;;5054191;28;20033;-75
2021/09/08 05:19:12;;;;;;;79.70;28.92;;;;;;;;;;5054401;28;20374;-74
2021/09/08 05:21:37;;;;;;;79.30;28.65;;;;;;;;;;5054307;28;20020;-75
2021/09/08 05:24:03;;;;;;;66.38;25.08;;;;;;;;;;5054415;28;20024;-74
2021/09/08 05:26:28;;;;;;;67.93;25.85;;;;;;;;;;5054148;28;20476;-75
2021/09/08 05:28:53;;;;;;;76.45;27.88;;;;;;;;;;5054234;28;20025;-74
2021/09/08 05:31:19;;;;;;;73.40;27.70;;;;;;;;;;5054124;28;20024;-75
2021/09/08 05:33:44;;;;;;;66.70;27.20;;;;;;;;;;5054317;28;20053;-75
2021/09/08 05:36:09;;;;;;;73.32;26.65;;;;;;;;;;5054058;28;20031;-75
2021/09/08 05:38:35;;;;;;;67.22;27.00;;;;;;;;;;5053342;28;20045;-74
2021/09/08 05:41:02;;;;;;;71.63;27.83;;;;;;;;;;5053960;28;20080;-75
2021/09/08 05:43:27;;;;;;;69.88;27.30;;;;;;;;;;5053936;28;20013;-75
2021/09/08 05:45:52;;;;;;;73.53;28.40;;;;;;;;;;5053887;28;20029;-74
2021/09/08 05:48:18;;;;;;;96.30;30.77;;;;;;;;;;5053776;28;20473;-74
2021/09/08 05:50:43;;;;;;;86.63;30.85;;;;;;;;;;5053837;28;20032;-75
2021/09/08 05:53:08;;;;;;;76.13;27.95;;;;;;;;;;5053745;28;20104;-75
2021/09/08 05:55:33;;;;;;;69.30;28.83;;;;;;;;;;5053688;28;20110;-75
2021/09/08 05:57:59;;;;;;;68.50;27.33;;;;;;;;;;5052210;28;20385;-76
2021/09/08 06:00:24;;;;;;;68.07;27.13;;;;;;;;;;5053708;28;20036;-75
2021/09/08 06:02:49;;;;;;;61.47;24.88;;;;;;;;;;5053651;28;20068;-75
2021/09/08 06:05:15;;;;;;;76.13;29.33;;;;;;;;;;5053662;28;20020;-75
2021/09/08 06:07:40;;;;;;;74.18;26.58;;;;;;;;;;5053899;28;20048;-75
2021/09/08 06:10:06;;;;;;;61.67;25.75;;;;;;;;;;5053560;28;20025;-75
2021/09/08 06:12:31;;;;;;;61.85;26.15;;;;;;;;;;5053447;28;20021;-75
2021/09/08 06:14:57;;;;;;;71.78;26.92;;;;;;;;;;5053478;28;20043;-75
2021/09/08 06:17:22;;;;;;;169.05;37.67;;;;;;;;;;5053389;28;20151;-75
2021/09/08 06:19:47;;;;;;;52.25;20.40;;;;;;;;;;5053419;28;20032;-75
2021/09/08 06:22:12;;;;;;;41.92;18.35;;;;;;;;;;5053434;28;20369;-75
2021/09/08 06:24:38;;;;;;;113.80;29.00;;;;;;;;;;5053261;28;20020;-75
2021/09/08 06:27:03;;;;;;;96.93;25.40;;;;;;;;;;5053438;28;20021;-75
2021/09/08 06:29:28;;;;;;;357.90;43.05;;;;;;;;;;5052882;28;20033;-75
2021/09/08 06:31:54;;;;;;;42.03;18.58;;;;;;;;;;5053143;28;20135;-75
2021/09/08 06:34:19;;;;;;;109.72;25.63;;;;;;;;;;5052108;28;20036;-76
2021/09/08 06:36:44;;;;;;;36.35;17.90;;;;;;;;;;5052970;28;20033;-75
2021/09/08 06:39:09;;;;;;;40.28;19.58;;;;;;;;;;5053257;28;20446;-75
2021/09/08 06:41:35;;;;;;;38.63;18.88;;;;;;;;;;5053121;28;20028;-75
2021/09/08 06:44:00;;;;;;;27.85;15.45;;;;;;;;;;5053181;28;20106;-75
2021/09/08 06:46:25;;;;;;;56.67;22.50;;;;;;;;;;5053146;28;20476;-75
2021/09/08 06:48:51;;;;;;;34.25;17.67;;;;;;;;;;5052745;28;20028;-75
2021/09/08 06:51:16;;;;;;;35.85;16.15;;;;;;;;;;5053103;28;20033;-77
2021/09/08 06:53:42;;;;;;;24.17;11.35;;;;;;;;;;5053309;28;20444;-75
2021/09/08 06:56:07;;;;;;;20.65;12.32;;;;;;;;;;5053122;28;20021;-75
2021/09/08 06:58:33;;;;;;;14.73;10.40;;;;;;;;;;5052580;28;20037;-76
2021/09/08 07:00:58;;;;;;;13.98;10.05;;;;;;;;;;5052728;28;20021;-75
2021/09/08 07:03:23;;;;;;;13.73;9.05;;;;;;;;;;5053059;28;20013;-75
2021/09/08 07:05:48;;;;;;;11.25;8.02;;;;;;;;;;5052540;28;20041;-76
2021/09/08 07:08:15;;;;;;;11.70;8.48;;;;;;;;;;5053089;28;20017;-75
2021/09/08 07:10:41;;;;;;;10.20;7.78;;;;;;;;;;5055061;28;20025;-76
2021/09/08 07:13:06;;;;;;;11.73;7.88;;;;;;;;;;5056711;28;20044;-74
2021/09/08 07:15:31;;;;;;;13.43;7.45;;;;;;;;;;5056728;28;20017;-76
2021/09/08 07:17:57;;;;;;;12.30;7.38;;;;;;;;;;5056639;28;20040;-76
2021/09/08 07:20:23;;;;;;;11.10;7.43;;;;;;;;;;5056658;28;20033;-76
2021/09/08 07:22:48;;;;;;;9.68;7.55;;;;;;;;;;5056594;28;20024;-76
2021/09/08 07:25:14;;;;;;;9.98;6.82;;;;;;;;;;5056831;28;20446;-76
2021/09/08 07:27:39;;;;;;;11.30;7.20;;;;;;;;;;5056421;28;20210;-76
2021/09/08 07:30:05;;;;;;;10.45;6.75;;;;;;;;;;5056347;28;20021;-77
2021/09/08 07:32:30;;;;;;;10.80;7.53;;;;;;;;;;5056125;28;20095;-76
2021/09/08 07:34:58;;;;;;;11.13;7.38;;;;;;;;;;5056136;28;20108;-76
2021/09/08 07:37:23;;;;;;;11.50;7.15;;;;;;;;;;5056100;28;20112;-76
2021/09/08 07:39:49;;;;;;;11.63;7.63;;;;;;;;;;5056344;28;20105;-76
2021/09/08 07:42:14;;;;;;;10.45;7.97;;;;;;;;;;5056503;28;20112;-75
2021/09/08 07:44:41;;;;;;;11.45;7.47;;;;;;;;;;5056135;28;20365;-74
2021/09/08 07:47:07;;;;;;;9.88;7.53;;;;;;;;;;5056495;28;20021;-75
2021/09/08 07:49:32;;;;;;;15.10;8.25;;;;;;;;;;5056040;28;20040;-75
2021/09/08 07:51:57;;;;;;;10.77;7.90;;;;;;;;;;5056037;28;20021;-75
2021/09/08 07:54:22;;;;;;;10.85;7.55;;;;;;;;;;5056008;28;20273;-75
2021/09/08 07:56:48;;;;;;;11.98;9.02;;;;;;;;;;5055992;28;20375;-75
2021/09/08 07:59:13;;;;;;;11.80;8.37;;;;;;;;;;5055890;28;20485;-75
2021/09/08 08:01:38;;;;;;;11.77;8.50;;;;;;;;;;5055596;28;20238;-75
2021/09/08 08:04:03;;;;;;;10.53;8.73;;;;;;;;;;5055832;28;20440;-75
2021/09/08 08:06:29;;;;;;;11.63;8.83;;;;;;;;;;5055758;28;20242;-75
2021/09/08 08:08:54;;;;;;;10.90;8.90;;;;;;;;;;5055744;28;20246;-75
2021/09/08 08:11:19;;;;;;;12.40;8.52;;;;;;;;;;5055398;28;20657;-75
2021/09/08 08:13:47;;;;;;;12.70;8.97;;;;;;;;;;5055568;28;20067;-75
2021/09/08 08:16:14;;;;;;;15.95;8.60;;;;;;;;;;5055486;28;20706;-75
2021/09/08 08:18:39;;;;;;;16.20;7.97;;;;;;;;;;5055390;28;20083;-75
2021/09/08 08:21:04;;;;;;;15.45;9.30;;;;;;;;;;5055433;28;20057;-75
2021/09/08 08:23:30;;;;;;;16.30;8.35;;;;;;;;;;5055472;28;20381;-78
2021/09/08 08:25:55;;;;;;;14.03;9.53;;;;;;;;;;5055386;28;20059;-76
2021/09/08 08:28:20;;;;;;;12.23;8.37;;;;;;;;;;5055352;28;20242;-76
2021/09/08 08:30:45;;;;;;;13.90;8.60;;;;;;;;;;5055369;28;20717;-76
2021/09/08 08:33:11;;;;;;;13.73;9.30;;;;;;;;;;5053800;28;20556;-76
2021/09/08 08:35:36;;;;;;;11.43;8.45;;;;;;;;;;5055167;28;20513;-76
2021/09/08 08:38:01;;;;;;;15.13;9.13;;;;;;;;;;5055289;28;20496;-76
2021/09/08 08:40:27;;;;;;;9.88;7.40;;;;;;;;;;5054889;28;20278;-75
2021/09/08 08:42:52;;;;;;;10.18;7.75;;;;;;;;;;5055096;28;20021;-76
2021/09/08 08:45:18;;;;;;;14.15;8.25;;;;;;;;;;5055108;28;20056;-75
2021/09/08 08:47:43;;;;;;;11.10;8.15;;;;;;;;;;5054977;28;20037;-75
2021/09/08 08:50:11;;;;;;;12.95;8.48;;;;;;;;;;5055047;28;20434;-76
2021/09/08 08:52:36;;;;;;;13.32;8.27;;;;;;;;;;5054891;28;20104;-77
2021/09/08 08:55:02;;;;;;;11.18;8.43;;;;;;;;;;5054863;28;20059;-75
2021/09/08 08:57:28;;;;;;;11.52;7.93;;;;;;;;;;5054725;28;20028;-75
2021/09/08 08:59:53;;;;;;;11.45;7.20;;;;;;;;;;5054491;28;20412;-76
2021/09/08 09:02:22;;;;;;;10.90;8.53;;;;;;;;;;5054664;28;20036;-76
2021/09/08 09:04:49;;;;;;;12.52;8.15;;;;;;;;;;5054672;28;20257;-76
2021/09/08 09:07:43;;;;;;;8.77;6.30;;;;;;;;;;5055041;28;20114;-75
2021/09/08 09:10:08;;;;;;;;;;;;;;;;;;5050148;28;20056;-75
2021/09/08 09:12:35;;;;;;;14.25;8.55;;;;;;;;;;5054457;28;19905;-76
2021/09/08 09:15:07;;;;;;;15.90;7.95;;;;;;;;;;5054780;28;20043;-75
2021/09/08 09:17:34;;;;;;;16.40;8.57;;;;;;;;;;5054017;28;20470;-76
2021/09/08 09:20:04;;;;;;;16.95;8.52;;;;;;;;;;5054090;28;20454;-75
2021/09/08 09:22:39;;;;;;;13.43;9.52;;;;;;;;;;5054360;28;20079;-76
2021/09/08 09:25:06;;;;;;;16.58;8.52;;;;;;;;;;5054233;28;20100;-75
2021/09/08 09:27:38;;;;;;;12.82;7.80;;;;;;;;;;5053951;28;20047;-75
2021/09/08 09:30:10;;;;;;;11.48;8.60;;;;;;;;;;5054196;28;20023;-75
2021/09/08 09:32:39;;;;;;;14.02;8.07;;;;;;;;;;5053460;28;20049;-75
2021/09/08 09:35:05;;;;;;;13.27;7.20;;;;;;;;;;5054199;28;20084;-75
2021/09/08 09:37:32;;;;;;;13.80;7.75;;;;;;;;;;5053544;28;20386;-75
2021/09/08 09:40:00;;;;;;;22.25;7.88;;;;;;;;;;5053971;28;20033;-75
2021/09/08 09:42:31;;;;;;;11.55;7.90;;;;;;;;;;5053941;28;20059;-75
2021/09/08 09:45:15;;;;;;;12.55;7.45;;;;;;;;;;5053938;28;20020;-75
2021/09/08 09:47:41;;;;;;;17.10;7.80;;;;;;;;;;5053793;28;20075;-75
2021/09/08 09:50:08;;;;;;;10.02;6.90;;;;;;;;;;5053844;28;20029;-76
2021/09/08 09:52:34;;;;;;;9.20;6.78;;;;;;;;;;5053784;28;20012;-76
2021/09/08 09:55:00;;;;;;;13.60;7.43;;;;;;;;;;5053696;28;20652;-75
2021/09/08 09:57:26;;;;;;;9.43;6.43;;;;;;;;;;5053653;28;20111;-75
2021/09/08 09:59:52;;;;;;;11.43;6.70;;;;;;;;;;5053635;28;20112;-75
2021/09/08 10:02:17;;;;;;;9.80;6.68;;;;;;;;;;5053674;28;20037;-76
2021/09/08 10:04:43;;;;;;;10.30;7.20;;;;;;;;;;5053558;28;20167;-75
2021/09/08 10:07:08;;;;;;;9.73;6.95;;;;;;;;;;5053633;28;20729;-75
2021/09/08 10:09:34;;;;;;;9.00;6.75;;;;;;;;;;5053513;28;20469;-76
2021/09/08 10:11:59;;;;;;;12.93;8.00;;;;;;;;;;5053568;28;20125;-75
2021/09/08 10:14:25;;;;;;;8.57;5.80;;;;;;;;;;5053518;28;20166;-75
2021/09/08 10:16:51;;;;;;;9.93;6.65;;;;;;;;;;5053374;28;20064;-75
2021/09/08 10:19:23;;;;;;;8.68;6.25;;;;;;;;;;5053461;28;20025;-75
2021/09/08 10:21:50;;;;;;;10.15;5.95;;;;;;;;;;5053628;28;20381;-75
2021/09/08 10:24:16;;;;;;;8.55;5.90;;;;;;;;;;5052250;28;20367;-75
2021/09/08 10:26:41;;;;;;;10.20;6.60;;;;;;;;;;5053221;28;20108;-75
2021/09/08 10:29:07;;;;;;;14.23;6.20;;;;;;;;;;5053302;28;20017;-74
2021/09/08 10:31:35;;;;;;;8.70;6.38;;;;;;;;;;5053025;28;20717;-77
2021/09/08 10:34:01;;;;;;;10.38;6.45;;;;;;;;;;5053261;28;20040;-77
2021/09/08 10:36:26;;;;;;;10.23;6.10;;;;;;;;;;5053165;28;20021;-77
2021/09/08 10:39:07;;;;;;;8.82;6.28;;;;;;;;;;5053121;28;20045;-77
2021/09/08 10:41:43;;;;;;;12.98;6.20;;;;;;;;;;5053164;28;20044;-76
2021/09/08 10:44:09;;;;;;;10.93;7.05;;;;;;;;;;5053265;28;20025;-76
2021/09/08 10:46:54;;;;;;;10.27;6.72;;;;;;;;;;5057049;28;20477;-76
2021/09/08 10:49:41;;;;;;;10.70;6.32;;;;;;;;;;5056594;28;20083;-77
2021/09/08 10:52:07;;;;;;;13.48;6.70;;;;;;;;;;5057314;28;20025;-76
2021/09/08 10:54:33;;;;;;;12.43;6.57;;;;;;;;;;5057115;28;20033;-76
2021/09/08 10:56:58;;;;;;;10.82;6.70;;;;;;;;;;5056684;28;20116;-76
2021/09/08 10:59:24;;;;;;;10.23;6.57;;;;;;;;;;5056798;28;20021;-76
2021/09/08 11:01:52;;;;;;;15.57;6.93;;;;;;;;;;5056926;28;20029;-77
2021/09/08 11:04:18;;;;;;;12.88;7.82;;;;;;;;;;5055791;28;20124;-77
2021/09/08 11:06:48;;;;;;;10.77;6.85;;;;;;;;;;5056577;28;20580;-77
2021/09/08 11:09:14;;;;;;;12.23;6.55;;;;;;;;;;5056909;28;20021;-77
2021/09/08 11:11:58;;;;;;;12.43;6.28;;;;;;;;;;5056764;28;20033;-77
2021/09/08 11:14:53;;;;;;;11.33;7.13;;;;;;;;;;5056719;28;20416;-76
2021/09/08 11:17:25;;;;;;;13.77;7.03;;;;;;;;;;5051835;28;20053;-78
2021/09/08 11:19:54;;;;;;;10.48;6.55;;;;;;;;;;5056625;28;20107;-76
2021/09/08 11:22:19;;;;;;;10.13;6.60;;;;;;;;;;5056679;28;20029;-77
2021/09/08 11:24:45;;;;;;;8.52;6.13;;;;;;;;;;5056536;28;20021;-76
2021/09/08 11:27:10;;;;;;;7.75;6.03;;;;;;;;;;5056636;28;20162;-76
2021/09/08 11:29:35;;;;;;;7.93;5.30;;;;;;;;;;5056181;28;20032;-76
2021/09/08 11:32:01;;;;;;;8.10;5.43;;;;;;;;;;5056593;28;20053;-76
2021/09/08 11:34:27;;;;;;;11.45;5.15;;;;;;;;;;5056393;28;20021;-76
2021/09/08 11:36:53;;;;;;;9.48;5.55;;;;;;;;;;5056245;28;20115;-76
2021/09/08 11:39:19;;;;;;;8.10;5.53;;;;;;;;;;5056249;28;20021;-76
2021/09/08 11:41:58;;;;;;;9.88;5.75;;;;;;;;;;5056230;28;20025;-76
2021/09/08 11:44:24;;;;;;;11.00;5.82;;;;;;;;;;5056148;28;20043;-76
2021/09/08 11:46:49;;;;;;;9.18;5.57;;;;;;;;;;5056178;28;20033;-76
2021/09/08 11:49:15;;;;;;;10.75;5.90;;;;;;;;;;5056161;28;20060;-76
2021/09/08 11:51:41;;;;;;;9.25;5.70;;;;;;;;;;5055738;28;20104;-76
2021/09/08 11:54:08;;;;;;;8.35;5.07;;;;;;;;;;5056052;28;20072;-76
2021/09/08 11:56:33;;;;;;;10.82;5.55;;;;;;;;;;5055145;28;20548;-76
2021/09/08 11:59:03;;;;;;;9.43;5.50;;;;;;;;;;5056132;28;20112;-76
2021/09/08 12:01:32;;;;;;;14.10;5.65;;;;;;;;;;5055877;28;20040;-76
2021/09/08 12:03:59;;;;;;;12.93;5.75;;;;;;;;;;5055548;28;20527;-76
2021/09/08 12:06:25;;;;;;;10.95;5.50;;;;;;;;;;5054351;28;20453;-76
2021/09/08 12:08:50;;;;;;;7.65;5.43;;;;;;;;;;5055715;28;20029;-76
2021/09/08 12:11:34;;;;;;;10.47;6.03;;;;;;;;;;5055803;28;20354;-76
2021/09/08 12:14:18;;;;;;;11.95;5.28;;;;;;;;;;5055577;28;20270;-76
2021/09/08 12:16:44;;;;;;;7.18;5.28;;;;;;;;;;5055444;28;20112;-77
2021/09/08 12:19:16;;;;;;;15.35;5.30;;;;;;;;;;5055531;28;20127;-76
2021/09/08 12:21:43;;;;;;;8.38;4.72;;;;;;;;;;5055379;28;20068;-77
2021/09/08 12:24:37;;;;;;;9.20;6.40;;;;;;;;;;5041042;28;20064;-76
2021/09/08 12:27:02;;;;;;;10.55;5.70;;;;;;;;;;5018068;28;20111;-77
2021/09/08 12:29:28;;;;;;;11.00;5.20;;;;;;;;;;5044110;28;20462;-76
2021/09/08 12:31:57;;;;;;;7.90;4.72;;;;;;;;;;5034792;28;20550;-76
2021/09/08 12:34:23;;;;;;;10.82;5.45;;;;;;;;;;5035321;28;20025;-76
2021/09/08 12:36:49;;;;;;;7.30;4.75;;;;;;;;;;5044204;28;20060;-76
2021/09/08 12:39:16;;;;;;;7.95;4.75;;;;;;;;;;5054806;28;20044;-77
2021/09/08 12:41:56;;;;;;;12.13;5.10;;;;;;;;;;5055070;28;20041;-78
2021/09/08 12:44:29;;;;;;;10.45;4.95;;;;;;;;;;5054718;28;20389;-76
2021/09/08 12:46:54;;;;;;;8.30;4.40;;;;;;;;;;5054956;28;20075;-76
2021/09/08 12:49:21;;;;;;;7.45;4.60;;;;;;;;;;5055278;28;20032;-77
2021/09/08 12:51:46;;;;;;;9.00;5.00;;;;;;;;;;5054843;28;20021;-77
2021/09/08 12:54:12;;;;;;;6.70;4.40;;;;;;;;;;5054803;28;20044;-77
2021/09/08 12:56:42;;;;;;;11.68;5.50;;;;;;;;;;5053232;28;20024;-77
2021/09/08 12:59:08;;;;;;;9.40;5.28;;;;;;;;;;5054096;28;20102;-77
2021/09/08 13:01:33;;;;;;;6.35;4.68;;;;;;;;;;5042256;28;20068;-77
2021/09/08 13:03:58;;;;;;;8.40;4.50;;;;;;;;;;5034475;28;20071;-77
2021/09/08 13:06:24;;;;;;;9.45;4.93;;;;;;;;;;5034866;28;20009;-78
2021/09/08 13:08:49;;;;;;;10.77;4.35;;;;;;;;;;5034048;28;20394;-76
2021/09/08 13:11:14;;;;;;;9.02;4.32;;;;;;;;;;5034706;28;20458;-76
2021/09/08 13:13:40;;;;;;;9.65;4.25;;;;;;;;;;5034584;28;20489;-78
2021/09/08 13:16:05;;;;;;;8.43;4.15;;;;;;;;;;5041930;28;20112;-76
2021/09/08 13:18:31;;;;;;;5.63;4.07;;;;;;;;;;5054421;28;20440;-77
2021/09/08 13:20:56;;;;;;;7.82;3.78;;;;;;;;;;5054315;28;20100;-76
2021/09/08 13:23:21;;;;;;;9.38;4.65;;;;;;;;;;5053974;28;20028;-77
2021/09/08 13:25:47;;;;;;;8.73;5.22;;;;;;;;;;5053905;28;20083;-76
2021/09/08 13:28:12;;;;;;;8.25;5.13;;;;;;;;;;5054272;28;20017;-76
2021/09/08 13:30:37;;;;;;;10.05;4.78;;;;;;;;;;5053751;28;20025;-76
2021/09/08 13:33:03;;;;;;;8.75;4.53;;;;;;;;;;5053725;28;20052;-76
2021/09/08 13:35:28;;;;;;;6.18;4.22;;;;;;;;;;5050229;28;20032;-77
2021/09/08 13:37:53;;;;;;;6.80;4.40;;;;;;;;;;5053582;28;20039;-76
2021/09/08 13:40:19;;;;;;;10.80;4.50;;;;;;;;;;5040921;28;20382;-76
2021/09/08 13:42:44;;;;;;;8.75;4.60;;;;;;;;;;5033793;28;20128;-79
2021/09/08 13:45:09;;;;;;;11.15;4.18;;;;;;;;;;5048144;28;20029;-77
2021/09/08 13:47:35;;;;;;;8.48;4.90;;;;;;;;;;5053919;28;20025;-77
2021/09/08 13:50:00;;;;;;;12.20;5.15;;;;;;;;;;5051795;28;20154;-77
2021/09/08 13:52:25;;;;;;;9.63;4.78;;;;;;;;;;5043868;28;20033;-78
2021/09/08 13:54:51;;;;;;;8.35;4.78;;;;;;;;;;5033814;28;20029;-77
2021/09/08 13:57:16;;;;;;;9.37;4.57;;;;;;;;;;5033732;28;20033;-77
2021/09/08 13:59:41;;;;;;;9.25;4.10;;;;;;;;;;5033093;28;20278;-76
2021/09/08 14:02:06;;;;;;;7.88;4.82;;;;;;;;;;5036126;28;20037;-77
2021/09/08 14:04:32;;;;;;;8.30;4.55;;;;;;;;;;5033675;28;20100;-77
2021/09/08 14:06:58;;;;;;;8.45;4.65;;;;;;;;;;5036823;28;20453;-77
2021/09/08 14:09:23;;;;;;;9.68;4.40;;;;;;;;;;5053526;28;20044;-76
2021/09/08 14:11:52;;;;;;;7.07;4.60;;;;;;;;;;5053494;28;20017;-77
2021/09/08 14:14:17;;;;;;;8.27;4.40;;;;;;;;;;5053566;28;20260;-76
2021/09/08 14:16:42;;;;;;;8.35;4.40;;;;;;;;;;5053029;28;20025;-78
2021/09/08 14:19:09;;;;;;;6.78;4.32;;;;;;;;;;5053133;28;20078;-76
2021/09/08 14:21:34;;;;;;;7.50;4.53;;;;;;;;;;5053333;28;20029;-77